• Join FlightAware (Why Join?)
  • Login
  • US Flag 
01:12AM EDT


 

Airport Tracker/Info


-or-


 

Live Flight TrackerFlight Track Log ✈ SWA3121 ✈ 22-Apr-2013 ✈ KRDU - KBNA

Flight Track Log - Related Links

Times and Time Zones

All times are in EDT time to prevent confusion due to time zone crossing. See the SWA3121 flight status page for this flight to view local times or setup timezone preferences in your user account.

Time Position Orientation Groundspeed Altitude Reporting Facility
EDT Latitude Longitude Course Direction KTS MPH feet Rate Location/Type
04:16PM 35.9308 -78.7472 27° Northeast 199 229 4,100  Level Washington Center
04:17PM 35.9967 -78.7806 338° Northwest 294 338 6,400 1,380 Climbing Washington Center
04:19PM 36.0039 -78.9042 274° West 283 326 7,600 2,100 Climbing Washington Center
04:20PM 35.9681 -78.9900 243° Southwest 271 312 11,600 2,220 Climbing Washington Center
04:21PM 35.9233 -79.0906 241° Southwest 301 346 12,100 480 Climbing Washington Center
04:22PM 35.8853 -79.1786 242° Southwest 325 374 12,600 2,400 Climbing Washington Center
04:23PM 35.8400 -79.2969 245° Southwest 341 392 16,900 3,540 Climbing Washington Center
04:25PM 35.8119 -79.5653 263° West 359 413 23,900 2,820 Climbing Atlanta Center
04:26PM 35.7908 -79.6739 257° West 367 422 25,900 1,020 Climbing Atlanta Center
04:27PM 35.7936 -79.8144 271° West 379 436 26,000 960 Climbing Atlanta Center
04:28PM 35.7961 -79.9500 271° West 389 448 27,900 2,100 Climbing Atlanta Center
04:29PM 35.8025 -80.0831 273° West 389 448 30,200 2,040 Climbing Atlanta Center
04:30PM 35.8092 -80.2208 273° West 389 448 32,000 900 Climbing Atlanta Center
04:31PM 35.8153 -80.3589 273° West 407 468 32,000  Level Atlanta Center
04:32PM 35.8214 -80.4944 273° West 407 468 32,000 180 Level Atlanta Center
04:33PM 35.8275 -80.6297 273° West 396 456 32,400 960 Climbing Atlanta Center
04:34PM 35.8311 -80.7628 272° West 402 463 34,000 780 Climbing Atlanta Center
04:35PM 35.8367 -80.8958 273° West 402 463 34,000  Level Atlanta Center
04:36PM 35.8419 -81.0289 273° West 402 463 34,000  Level Atlanta Center
04:37PM 35.8472 -81.1619 273° West 402 463 34,000  Level Atlanta Center
04:38PM 35.8503 -81.2975 272° West 402 463 34,000 -300 Level Atlanta Center
04:39PM 35.8553 -81.4306 273° West 402 463 33,500 -780 Descending Atlanta Center
04:40PM 35.8581 -81.5661 271° West 402 463 32,500 -900 Descending Atlanta Center
04:41PM 35.8647 -81.6892 274° West 402 463 31,700 -960 Descending Atlanta Center
04:42PM 35.8672 -81.8222 271° West 402 463 30,600 -900 Descending Atlanta Center
04:43PM 35.8717 -81.9503 272° West 388 447 30,000 -300 Descending Atlanta Center
04:44PM 35.8736 -82.0833 271° West 383 441 30,000  Level Atlanta Center
04:45PM 35.8758 -82.2114 271° West 383 441 30,000  Level Atlanta Center
04:46PM 35.8778 -82.3525 271° West 383 441 30,000  Level Atlanta Center
04:47PM 35.8817 -82.4856 272° West 383 441 30,000  Level Atlanta Center
04:48PM 35.8831 -82.6139 271° West 377 434 30,000  Level Atlanta Center
04:49PM 35.8867 -82.7444 272° West 383 441 30,000  Level Atlanta Center
04:50PM 35.8881 -82.8750 271° West 383 441 30,000  Level Atlanta Center
04:51PM 35.8892 -83.0058 271° West 383 441 30,000  Level Atlanta Center
04:52PM 35.8922 -83.1364 272° West 383 441 30,000  Level Atlanta Center
04:53PM 35.8953 -83.2544 272° West 383 441 30,000  Level Atlanta Center
04:54PM 35.8981 -83.3800 272° West 378 435 30,000  Level Atlanta Center
04:55PM 35.9008 -83.5133 272° West 384 442 30,000  Level Atlanta Center
04:56PM 35.9011 -83.6414 270° West 384 442 30,000 -300 Level Atlanta Center
04:57PM 35.9036 -83.7722 271° West 384 442 29,400 -780 Descending Atlanta Center
04:58PM 35.9039 -83.9056 270° West 384 442 28,500 -960 Descending Atlanta Center
04:59PM 35.8811 -84.0361 258° West 384 442 27,500 -1,020 Descending Atlanta Center
05:00PM 35.8600 -84.1642 259° West 389 448 26,500 -1,020 Descending Atlanta Center
05:01PM 35.8389 -84.2922 259° West 389 448 25,500 -1,020 Descending Atlanta Center
05:02PM 35.8178 -84.4153 258° West 384 442 24,500 -1,260 Descending Atlanta Center
05:03PM 35.7964 -84.5456 259° West 384 442 23,000 -1,560 Descending Atlanta Center
05:04PM 35.7750 -84.6658 258° West 379 436 21,400 -1,320 Descending Atlanta Center
05:05PM 35.7556 -84.7886 259° West 369 425 20,400 -480 Descending Atlanta Center
05:07PM 35.7075 -85.0547 258° West 354 407 20,000 -180 Descending Memphis Center
05:08PM 35.6892 -85.1683 259° West 359 413 20,000  Level Memphis Center
05:09PM 35.6669 -85.2872 257° West 359 413 20,000  Level Memphis Center
05:10PM 35.6614 -85.4053 267° West 359 413 20,000  Level Memphis Center
05:11PM 35.6597 -85.5228 269° West 354 407 20,000  Level Memphis Center
05:12PM 35.6622 -85.6403 272° West 349 402 20,000  Level Memphis Center
05:13PM 35.6625 -85.7578 270° West 349 402 20,000 -360 Level Memphis Center
05:14PM 35.6631 -85.8906 270° West 349 402 19,300 -1,440 Descending Memphis Center
05:15PM 35.6650 -86.0028 271° West 343 395 17,200 300 Descending Memphis Center
05:16PM 35.6958 -86.1061 290° West 318 366 20,000 -2,160 Climbing Memphis Center
05:17PM 35.7569 -86.1847 314° West 312 359 12,900 -4,560 Descending Memphis Center
05:18PM 35.8136 -86.2639 311° West 317 365 10,900 -1,500 Descending Memphis Center
05:19PM 35.8725 -86.3378 315° West 308 354 9,900 -1,200 Descending Memphis Center
05:20PM 35.9247 -86.4069 313° West 292 336 8,500 -1,380 Descending Memphis Center
05:21PM 35.9703 -86.4689 312° West 279 321 7,200 -1,500 Descending Memphis Center
05:22PM 36.0425 -86.5064 337° Northwest 274 315 5,600 -1,680 Descending Memphis Center
05:23PM 36.1147 -86.5467 336° Northwest 274 315 3,900 -1,380 Descending Memphis Center
05:24PM 36.1844 -86.5847 336° Northwest 274 315 2,900 -720 Descending Memphis Center
05:25PM 36.2006 -86.6303 294° West 181 208 2,500 -900 Descending Memphis Center
05:26PM 36.1656 -86.6472 201° Southwest 93 107 1,200 -1,320 Descending Memphis Center
05:28PM 36.1245 -86.6782 172° South  Level Estimated
05:35PM 36.1245 -86.6782 345° North  Level Estimated
05:36PM 36.1245 -86.6782 345° North  Level Estimated
05:37PM 36.1245 -86.6782 345° North  Level Estimated
05:38PM 36.1245 -86.6782 345° North  Level Estimated
05:39PM 36.1245 -86.6782 345° North  Level Estimated
05:40PM 36.1245 -86.6782 345° North  Level Estimated
05:41PM 36.1245 -86.6782 345° North  Level Estimated
05:42PM 36.1245 -86.6782 345° North  Level Estimated
05:43PM 36.1245 -86.6782 345° North  Level Estimated
05:44PM 36.1245 -86.6782 345° North  Level Estimated
05:45PM 36.1245 -86.6782 345° North  Level Estimated
05:46PM 36.1245 -86.6782 345° North  Level Estimated
05:47PM 36.1245 -86.6782 345° North  Level Estimated
05:48PM 36.1245 -86.6782 345° North  Level Estimated
05:49PM 36.1245 -86.6782 345° North  Level Estimated